sensor_id;sensor_type;location;lat;lon;timestamp;pressure;altitude;pressure_sealevel;temperature
37536;BMP180;23379;51.554;6.736;2024-02-26T00:01:27;99387.00;;;7.10
37536;BMP180;23379;51.554;6.736;2024-02-26T00:03:53;99367.00;;;7.00
37536;BMP180;23379;51.554;6.736;2024-02-26T00:06:19;99354.00;;;7.20
37536;BMP180;23379;51.554;6.736;2024-02-26T00:08:45;99357.00;;;7.20
37536;BMP180;23379;51.554;6.736;2024-02-26T00:11:10;99371.00;;;7.20
37536;BMP180;23379;51.554;6.736;2024-02-26T00:13:36;99365.00;;;7.10
37536;BMP180;23379;51.554;6.736;2024-02-26T00:16:03;99371.00;;;7.30
37536;BMP180;23379;51.554;6.736;2024-02-26T00:18:28;99335.00;;;7.20
37536;BMP180;23379;51.554;6.736;2024-02-26T00:20:54;99355.00;;;7.00
37536;BMP180;23379;51.554;6.736;2024-02-26T00:23:19;99351.00;;;7.20
37536;BMP180;23379;51.554;6.736;2024-02-26T00:25:44;99347.00;;;7.20
37536;BMP180;23379;51.554;6.736;2024-02-26T00:28:10;99355.00;;;7.20
37536;BMP180;23379;51.554;6.736;2024-02-26T00:30:36;99374.00;;;7.10
37536;BMP180;23379;51.554;6.736;2024-02-26T00:33:01;99391.00;;;7.20
37536;BMP180;23379;51.554;6.736;2024-02-26T00:35:26;99408.00;;;7.10
37536;BMP180;23379;51.554;6.736;2024-02-26T00:37:52;99373.00;;;7.10
37536;BMP180;23379;51.554;6.736;2024-02-26T00:40:18;99377.00;;;7.10
37536;BMP180;23379;51.554;6.736;2024-02-26T00:42:43;99400.00;;;7.10
37536;BMP180;23379;51.554;6.736;2024-02-26T00:45:11;99368.00;;;6.90
37536;BMP180;23379;51.554;6.736;2024-02-26T00:47:37;99363.00;;;6.90
37536;BMP180;23379;51.554;6.736;2024-02-26T00:50:02;99383.00;;;6.80
37536;BMP180;23379;51.554;6.736;2024-02-26T00:52:28;99376.00;;;6.80
37536;BMP180;23379;51.554;6.736;2024-02-26T00:54:53;99347.00;;;6.70
37536;BMP180;23379;51.554;6.736;2024-02-26T00:57:19;99369.00;;;6.90
37536;BMP180;23379;51.554;6.736;2024-02-26T00:59:44;99356.00;;;6.80
37536;BMP180;23379;51.554;6.736;2024-02-26T01:02:09;99373.00;;;6.80
37536;BMP180;23379;51.554;6.736;2024-02-26T01:04:34;99372.00;;;7.00
37536;BMP180;23379;51.554;6.736;2024-02-26T01:07:00;99377.00;;;6.80
37536;BMP180;23379;51.554;6.736;2024-02-26T01:09:25;99356.00;;;6.80
37536;BMP180;23379;51.554;6.736;2024-02-26T01:11:50;99334.00;;;6.80
37536;BMP180;23379;51.554;6.736;2024-02-26T01:14:16;99357.00;;;6.80
37536;BMP180;23379;51.554;6.736;2024-02-26T01:16:41;99361.00;;;6.90
37536;BMP180;23379;51.554;6.736;2024-02-26T01:19:06;99358.00;;;7.00
37536;BMP180;23379;51.554;6.736;2024-02-26T01:21:32;99347.00;;;6.80
37536;BMP180;23379;51.554;6.736;2024-02-26T01:23:57;99343.00;;;6.70
37536;BMP180;23379;51.554;6.736;2024-02-26T01:26:23;99339.00;;;6.60
37536;BMP180;23379;51.554;6.736;2024-02-26T01:28:48;99356.00;;;6.80
37536;BMP180;23379;51.554;6.736;2024-02-26T01:31:14;99342.00;;;6.80
37536;BMP180;23379;51.554;6.736;2024-02-26T01:33:39;99368.00;;;6.70
37536;BMP180;23379;51.554;6.736;2024-02-26T01:36:05;99373.00;;;7.00
37536;BMP180;23379;51.554;6.736;2024-02-26T01:38:30;99378.00;;;6.90
37536;BMP180;23379;51.554;6.736;2024-02-26T01:40:56;99383.00;;;6.60
37536;BMP180;23379;51.554;6.736;2024-02-26T01:43:21;99389.00;;;6.60
37536;BMP180;23379;51.554;6.736;2024-02-26T01:45:47;99373.00;;;6.60
37536;BMP180;23379;51.554;6.736;2024-02-26T01:48:12;99378.00;;;6.70
37536;BMP180;23379;51.554;6.736;2024-02-26T01:50:38;99375.00;;;6.80
37536;BMP180;23379;51.554;6.736;2024-02-26T01:53:04;99369.00;;;6.80
37536;BMP180;23379;51.554;6.736;2024-02-26T01:55:30;99363.00;;;6.90
37536;BMP180;23379;51.554;6.736;2024-02-26T01:57:55;99371.00;;;6.80
37536;BMP180;23379;51.554;6.736;2024-02-26T02:00:21;99370.00;;;6.90
37536;BMP180;23379;51.554;6.736;2024-02-26T02:02:47;99379.00;;;6.90
37536;BMP180;23379;51.554;6.736;2024-02-26T02:05:15;99360.00;;;7.10
37536;BMP180;23379;51.554;6.736;2024-02-26T02:07:41;99369.00;;;7.10
37536;BMP180;23379;51.554;6.736;2024-02-26T02:10:07;99371.00;;;7.00
37536;BMP180;23379;51.554;6.736;2024-02-26T02:12:33;99413.00;;;6.70
37536;BMP180;23379;51.554;6.736;2024-02-26T02:15:00;99405.00;;;6.80
37536;BMP180;23379;51.554;6.736;2024-02-26T02:17:26;99403.00;;;6.90
37536;BMP180;23379;51.554;6.736;2024-02-26T02:19:52;99377.00;;;6.90
37536;BMP180;23379;51.554;6.736;2024-02-26T02:22:18;99375.00;;;6.80
37536;BMP180;23379;51.554;6.736;2024-02-26T02:24:43;99388.00;;;6.90
37536;BMP180;23379;51.554;6.736;2024-02-26T02:27:09;99366.00;;;7.00
37536;BMP180;23379;51.554;6.736;2024-02-26T02:29:34;99378.00;;;6.80
37536;BMP180;23379;51.554;6.736;2024-02-26T02:32:01;99386.00;;;6.80
37536;BMP180;23379;51.554;6.736;2024-02-26T02:34:27;99391.00;;;6.60
37536;BMP180;23379;51.554;6.736;2024-02-26T02:36:53;99417.00;;;6.70
37536;BMP180;23379;51.554;6.736;2024-02-26T02:39:19;99381.00;;;6.80
37536;BMP180;23379;51.554;6.736;2024-02-26T02:41:45;99375.00;;;6.60
37536;BMP180;23379;51.554;6.736;2024-02-26T02:44:11;99375.00;;;6.70
37536;BMP180;23379;51.554;6.736;2024-02-26T02:46:36;99381.00;;;6.70
37536;BMP180;23379;51.554;6.736;2024-02-26T02:49:02;99389.00;;;6.80
37536;BMP180;23379;51.554;6.736;2024-02-26T02:51:27;99407.00;;;6.80
37536;BMP180;23379;51.554;6.736;2024-02-26T02:53:53;99400.00;;;6.80
37536;BMP180;23379;51.554;6.736;2024-02-26T02:56:18;99366.00;;;6.90
37536;BMP180;23379;51.554;6.736;2024-02-26T02:58:44;99387.00;;;7.00
37536;BMP180;23379;51.554;6.736;2024-02-26T03:01:09;99405.00;;;6.90
37536;BMP180;23379;51.554;6.736;2024-02-26T03:03:34;99380.00;;;6.90
37536;BMP180;23379;51.554;6.736;2024-02-26T03:06:02;99401.00;;;6.40
37536;BMP180;23379;51.554;6.736;2024-02-26T03:08:27;99395.00;;;6.70
37536;BMP180;23379;51.554;6.736;2024-02-26T03:10:53;99399.00;;;6.70
37536;BMP180;23379;51.554;6.736;2024-02-26T03:13:18;99403.00;;;6.60
37536;BMP180;23379;51.554;6.736;2024-02-26T03:15:46;99384.00;;;6.50
37536;BMP180;23379;51.554;6.736;2024-02-26T03:18:11;99399.00;;;6.50
37536;BMP180;23379;51.554;6.736;2024-02-26T03:20:36;99390.00;;;6.50
37536;BMP180;23379;51.554;6.736;2024-02-26T03:23:02;99399.00;;;6.60
37536;BMP180;23379;51.554;6.736;2024-02-26T03:25:28;99399.00;;;6.40
37536;BMP180;23379;51.554;6.736;2024-02-26T03:27:53;99414.00;;;6.50
37536;BMP180;23379;51.554;6.736;2024-02-26T03:30:18;99416.00;;;6.60
37536;BMP180;23379;51.554;6.736;2024-02-26T03:32:43;99407.00;;;6.50
37536;BMP180;23379;51.554;6.736;2024-02-26T03:35:09;99403.00;;;6.40
37536;BMP180;23379;51.554;6.736;2024-02-26T03:37:34;99400.00;;;6.40
37536;BMP180;23379;51.554;6.736;2024-02-26T03:40:00;99399.00;;;6.30
37536;BMP180;23379;51.554;6.736;2024-02-26T03:42:26;99409.00;;;6.50
37536;BMP180;23379;51.554;6.736;2024-02-26T03:44:51;99382.00;;;6.30
37536;BMP180;23379;51.554;6.736;2024-02-26T03:47:17;99409.00;;;6.50
37536;BMP180;23379;51.554;6.736;2024-02-26T03:49:42;99395.00;;;6.40
37536;BMP180;23379;51.554;6.736;2024-02-26T03:52:07;99394.00;;;6.30
37536;BMP180;23379;51.554;6.736;2024-02-26T03:54:33;99388.00;;;6.10
37536;BMP180;23379;51.554;6.736;2024-02-26T03:56:58;99418.00;;;6.00
37536;BMP180;23379;51.554;6.736;2024-02-26T03:59:24;99394.00;;;5.80
37536;BMP180;23379;51.554;6.736;2024-02-26T04:01:50;99404.00;;;5.70
37536;BMP180;23379;51.554;6.736;2024-02-26T04:04:16;99423.00;;;5.80
37536;BMP180;23379;51.554;6.736;2024-02-26T04:06:45;99388.00;;;5.80
37536;BMP180;23379;51.554;6.736;2024-02-26T04:09:12;99402.00;;;5.80
37536;BMP180;23379;51.554;6.736;2024-02-26T04:11:37;99400.00;;;5.70
37536;BMP180;23379;51.554;6.736;2024-02-26T04:14:03;99420.00;;;5.60
37536;BMP180;23379;51.554;6.736;2024-02-26T04:16:29;99394.00;;;5.80
37536;BMP180;23379;51.554;6.736;2024-02-26T04:18:54;99400.00;;;6.00
37536;BMP180;23379;51.554;6.736;2024-02-26T04:21:20;99437.00;;;5.70
37536;BMP180;23379;51.554;6.736;2024-02-26T04:23:45;99402.00;;;5.40
37536;BMP180;23379;51.554;6.736;2024-02-26T04:26:10;99388.00;;;5.40
37536;BMP180;23379;51.554;6.736;2024-02-26T04:28:36;99359.00;;;5.30
37536;BMP180;23379;51.554;6.736;2024-02-26T04:31:01;99422.00;;;5.30
37536;BMP180;23379;51.554;6.736;2024-02-26T04:33:27;99391.00;;;5.40
37536;BMP180;23379;51.554;6.736;2024-02-26T04:35:52;99391.00;;;5.50
37536;BMP180;23379;51.554;6.736;2024-02-26T04:38:18;99391.00;;;5.50
37536;BMP180;23379;51.554;6.736;2024-02-26T04:40:43;99397.00;;;5.30
37536;BMP180;23379;51.554;6.736;2024-02-26T04:43:08;99408.00;;;5.40
37536;BMP180;23379;51.554;6.736;2024-02-26T04:45:34;99412.00;;;5.30
37536;BMP180;23379;51.554;6.736;2024-02-26T04:47:59;99368.00;;;5.50
37536;BMP180;23379;51.554;6.736;2024-02-26T04:50:25;99418.00;;;5.50
37536;BMP180;23379;51.554;6.736;2024-02-26T04:52:50;99407.00;;;5.60
37536;BMP180;23379;51.554;6.736;2024-02-26T04:55:16;99403.00;;;5.30
37536;BMP180;23379;51.554;6.736;2024-02-26T04:57:41;99405.00;;;5.20
37536;BMP180;23379;51.554;6.736;2024-02-26T05:00:07;99403.00;;;5.30
37536;BMP180;23379;51.554;6.736;2024-02-26T05:02:33;99421.00;;;5.40
37536;BMP180;23379;51.554;6.736;2024-02-26T05:05:04;99430.00;;;5.50
37536;BMP180;23379;51.554;6.736;2024-02-26T05:07:29;99439.00;;;5.40
37536;BMP180;23379;51.554;6.736;2024-02-26T05:09:54;99401.00;;;5.60
37536;BMP180;23379;51.554;6.736;2024-02-26T05:12:21;99413.00;;;5.30
37536;BMP180;23379;51.554;6.736;2024-02-26T05:14:46;99425.00;;;5.20
37536;BMP180;23379;51.554;6.736;2024-02-26T05:17:11;99438.00;;;5.30
37536;BMP180;23379;51.554;6.736;2024-02-26T05:19:37;99419.00;;;5.40
37536;BMP180;23379;51.554;6.736;2024-02-26T05:22:02;99414.00;;;5.50
37536;BMP180;23379;51.554;6.736;2024-02-26T05:24:27;99400.00;;;5.40
37536;BMP180;23379;51.554;6.736;2024-02-26T05:26:53;99423.00;;;5.40
37536;BMP180;23379;51.554;6.736;2024-02-26T05:29:19;99433.00;;;5.50
37536;BMP180;23379;51.554;6.736;2024-02-26T05:31:45;99430.00;;;5.30
37536;BMP180;23379;51.554;6.736;2024-02-26T05:34:10;99439.00;;;5.40
37536;BMP180;23379;51.554;6.736;2024-02-26T05:36:35;99432.00;;;5.50
37536;BMP180;23379;51.554;6.736;2024-02-26T05:39:01;99429.00;;;5.30
37536;BMP180;23379;51.554;6.736;2024-02-26T05:41:26;99448.00;;;5.30
37536;BMP180;23379;51.554;6.736;2024-02-26T05:43:53;99450.00;;;5.30
37536;BMP180;23379;51.554;6.736;2024-02-26T05:46:18;99448.00;;;5.40
37536;BMP180;23379;51.554;6.736;2024-02-26T05:48:46;99445.00;;;5.50
37536;BMP180;23379;51.554;6.736;2024-02-26T05:51:11;99462.00;;;5.40
37536;BMP180;23379;51.554;6.736;2024-02-26T05:53:37;99464.00;;;5.30
37536;BMP180;23379;51.554;6.736;2024-02-26T05:56:02;99456.00;;;5.30
37536;BMP180;23379;51.554;6.736;2024-02-26T05:58:28;99450.00;;;5.20
37536;BMP180;23379;51.554;6.736;2024-02-26T06:00:54;99461.00;;;5.20
37536;BMP180;23379;51.554;6.736;2024-02-26T06:03:19;99462.00;;;5.30
37536;BMP180;23379;51.554;6.736;2024-02-26T06:05:45;99485.00;;;5.40
37536;BMP180;23379;51.554;6.736;2024-02-26T06:08:11;99483.00;;;5.10
37536;BMP180;23379;51.554;6.736;2024-02-26T06:10:36;99465.00;;;5.20
37536;BMP180;23379;51.554;6.736;2024-02-26T06:13:02;99481.00;;;5.20
37536;BMP180;23379;51.554;6.736;2024-02-26T06:15:27;99489.00;;;5.20
37536;BMP180;23379;51.554;6.736;2024-02-26T06:17:52;99474.00;;;5.20
37536;BMP180;23379;51.554;6.736;2024-02-26T06:20:18;99489.00;;;5.30
37536;BMP180;23379;51.554;6.736;2024-02-26T06:22:43;99480.00;;;5.40
37536;BMP180;23379;51.554;6.736;2024-02-26T06:25:08;99497.00;;;5.30
37536;BMP180;23379;51.554;6.736;2024-02-26T06:27:34;99499.00;;;5.40
37536;BMP180;23379;51.554;6.736;2024-02-26T06:30:00;99474.00;;;5.30
37536;BMP180;23379;51.554;6.736;2024-02-26T06:32:25;99499.00;;;5.30
37536;BMP180;23379;51.554;6.736;2024-02-26T06:34:52;99496.00;;;5.30
37536;BMP180;23379;51.554;6.736;2024-02-26T06:37:18;99494.00;;;5.30
37536;BMP180;23379;51.554;6.736;2024-02-26T06:39:43;99502.00;;;5.10
37536;BMP180;23379;51.554;6.736;2024-02-26T06:42:08;99510.00;;;5.10
37536;BMP180;23379;51.554;6.736;2024-02-26T06:44:34;99504.00;;;5.10
37536;BMP180;23379;51.554;6.736;2024-02-26T06:46:59;99508.00;;;5.10
37536;BMP180;23379;51.554;6.736;2024-02-26T06:49:25;99499.00;;;5.10
37536;BMP180;23379;51.554;6.736;2024-02-26T06:51:51;99506.00;;;5.10
37536;BMP180;23379;51.554;6.736;2024-02-26T06:54:16;99533.00;;;5.10
37536;BMP180;23379;51.554;6.736;2024-02-26T06:56:42;99502.00;;;5.10
37536;BMP180;23379;51.554;6.736;2024-02-26T06:59:07;99507.00;;;5.20
37536;BMP180;23379;51.554;6.736;2024-02-26T07:01:32;99494.00;;;5.30
37536;BMP180;23379;51.554;6.736;2024-02-26T07:03:58;99515.00;;;5.20
37536;BMP180;23379;51.554;6.736;2024-02-26T07:06:23;99503.00;;;5.40
37536;BMP180;23379;51.554;6.736;2024-02-26T07:08:48;99505.00;;;5.00
37536;BMP180;23379;51.554;6.736;2024-02-26T07:11:15;99521.00;;;5.50
37536;BMP180;23379;51.554;6.736;2024-02-26T07:13:40;99538.00;;;5.70
37536;BMP180;23379;51.554;6.736;2024-02-26T07:16:08;99536.00;;;6.00
37536;BMP180;23379;51.554;6.736;2024-02-26T07:18:34;99524.00;;;5.70
37536;BMP180;23379;51.554;6.736;2024-02-26T07:21:02;99509.00;;;5.80
37536;BMP180;23379;51.554;6.736;2024-02-26T07:23:27;99542.00;;;5.90
37536;BMP180;23379;51.554;6.736;2024-02-26T07:25:52;99522.00;;;5.70
37536;BMP180;23379;51.554;6.736;2024-02-26T07:28:18;99551.00;;;5.60
37536;BMP180;23379;51.554;6.736;2024-02-26T07:30:44;99523.00;;;5.40
37536;BMP180;23379;51.554;6.736;2024-02-26T07:33:10;99543.00;;;5.40
37536;BMP180;23379;51.554;6.736;2024-02-26T07:35:35;99527.00;;;5.30
37536;BMP180;23379;51.554;6.736;2024-02-26T07:38:01;99514.00;;;5.40
37536;BMP180;23379;51.554;6.736;2024-02-26T07:40:27;99552.00;;;5.30
37536;BMP180;23379;51.554;6.736;2024-02-26T07:42:52;99564.00;;;5.30
37536;BMP180;23379;51.554;6.736;2024-02-26T07:45:17;99538.00;;;5.50
37536;BMP180;23379;51.554;6.736;2024-02-26T07:47:46;99555.00;;;5.50
37536;BMP180;23379;51.554;6.736;2024-02-26T07:50:11;99547.00;;;5.30
37536;BMP180;23379;51.554;6.736;2024-02-26T07:52:37;99552.00;;;5.40
37536;BMP180;23379;51.554;6.736;2024-02-26T07:55:02;99571.00;;;5.60
37536;BMP180;23379;51.554;6.736;2024-02-26T07:57:28;99566.00;;;5.50
37536;BMP180;23379;51.554;6.736;2024-02-26T07:59:53;99557.00;;;5.50
37536;BMP180;23379;51.554;6.736;2024-02-26T08:02:19;99587.00;;;5.40
37536;BMP180;23379;51.554;6.736;2024-02-26T08:04:44;99541.00;;;5.40
37536;BMP180;23379;51.554;6.736;2024-02-26T08:07:10;99575.00;;;5.50
37536;BMP180;23379;51.554;6.736;2024-02-26T08:09:35;99575.00;;;5.60
37536;BMP180;23379;51.554;6.736;2024-02-26T08:12:00;99576.00;;;5.40
37536;BMP180;23379;51.554;6.736;2024-02-26T08:14:26;99595.00;;;5.50
37536;BMP180;23379;51.554;6.736;2024-02-26T08:16:51;99608.00;;;5.50
37536;BMP180;23379;51.554;6.736;2024-02-26T08:19:16;99592.00;;;5.60
37536;BMP180;23379;51.554;6.736;2024-02-26T08:21:43;99615.00;;;5.50
37536;BMP180;23379;51.554;6.736;2024-02-26T08:24:08;99603.00;;;5.40
37536;BMP180;23379;51.554;6.736;2024-02-26T08:26:33;99589.00;;;5.60
37536;BMP180;23379;51.554;6.736;2024-02-26T08:28:59;99603.00;;;5.60
37536;BMP180;23379;51.554;6.736;2024-02-26T08:31:24;99597.00;;;5.70
37536;BMP180;23379;51.554;6.736;2024-02-26T08:33:50;99603.00;;;5.70
37536;BMP180;23379;51.554;6.736;2024-02-26T08:36:15;99611.00;;;5.70
37536;BMP180;23379;51.554;6.736;2024-02-26T08:38:41;99593.00;;;5.70
37536;BMP180;23379;51.554;6.736;2024-02-26T08:41:06;99619.00;;;5.60
37536;BMP180;23379;51.554;6.736;2024-02-26T08:43:31;99602.00;;;5.60
37536;BMP180;23379;51.554;6.736;2024-02-26T08:45:57;99601.00;;;5.60
37536;BMP180;23379;51.554;6.736;2024-02-26T08:48:22;99598.00;;;5.60
37536;BMP180;23379;51.554;6.736;2024-02-26T08:50:48;99585.00;;;5.60
37536;BMP180;23379;51.554;6.736;2024-02-26T08:53:13;99614.00;;;5.70
37536;BMP180;23379;51.554;6.736;2024-02-26T08:55:38;99617.00;;;5.50
37536;BMP180;23379;51.554;6.736;2024-02-26T08:58:04;99617.00;;;5.60
37536;BMP180;23379;51.554;6.736;2024-02-26T09:00:29;99627.00;;;5.80
37536;BMP180;23379;51.554;6.736;2024-02-26T09:02:56;99615.00;;;5.70
37536;BMP180;23379;51.554;6.736;2024-02-26T09:05:21;99631.00;;;5.60
37536;BMP180;23379;51.554;6.736;2024-02-26T09:07:46;99629.00;;;5.60
37536;BMP180;23379;51.554;6.736;2024-02-26T09:10:12;99619.00;;;5.70
37536;BMP180;23379;51.554;6.736;2024-02-26T09:12:38;99634.00;;;5.70
37536;BMP180;23379;51.554;6.736;2024-02-26T09:15:07;99645.00;;;5.70
37536;BMP180;23379;51.554;6.736;2024-02-26T09:17:32;99644.00;;;5.70
37536;BMP180;23379;51.554;6.736;2024-02-26T09:19:58;99647.00;;;5.80
37536;BMP180;23379;51.554;6.736;2024-02-26T09:22:23;99660.00;;;5.90
37536;BMP180;23379;51.554;6.736;2024-02-26T09:24:48;99646.00;;;5.90
37536;BMP180;23379;51.554;6.736;2024-02-26T09:27:15;99653.00;;;5.70
37536;BMP180;23379;51.554;6.736;2024-02-26T09:29:41;99650.00;;;5.70
37536;BMP180;23379;51.554;6.736;2024-02-26T09:32:07;99650.00;;;5.60
37536;BMP180;23379;51.554;6.736;2024-02-26T09:34:32;99649.00;;;5.60
37536;BMP180;23379;51.554;6.736;2024-02-26T09:36:58;99651.00;;;5.60
37536;BMP180;23379;51.554;6.736;2024-02-26T09:39:24;99667.00;;;5.70
37536;BMP180;23379;51.554;6.736;2024-02-26T09:41:49;99673.00;;;5.70
37536;BMP180;23379;51.554;6.736;2024-02-26T09:44:18;99672.00;;;5.70
37536;BMP180;23379;51.554;6.736;2024-02-26T09:46:44;99660.00;;;5.70
37536;BMP180;23379;51.554;6.736;2024-02-26T09:49:11;99676.00;;;5.70
37536;BMP180;23379;51.554;6.736;2024-02-26T09:51:38;99669.00;;;5.90
37536;BMP180;23379;51.554;6.736;2024-02-26T09:54:03;99675.00;;;5.80
37536;BMP180;23379;51.554;6.736;2024-02-26T09:56:29;99679.00;;;5.90
37536;BMP180;23379;51.554;6.736;2024-02-26T09:58:56;99688.00;;;6.00
37536;BMP180;23379;51.554;6.736;2024-02-26T10:01:22;99699.00;;;6.00
37536;BMP180;23379;51.554;6.736;2024-02-26T10:03:56;99697.00;;;6.00
37536;BMP180;23379;51.554;6.736;2024-02-26T10:06:23;99700.00;;;5.90
37536;BMP180;23379;51.554;6.736;2024-02-26T10:08:49;99703.00;;;6.00
37536;BMP180;23379;51.554;6.736;2024-02-26T10:11:15;99698.00;;;5.90
37536;BMP180;23379;51.554;6.736;2024-02-26T10:13:41;99714.00;;;6.00
37536;BMP180;23379;51.554;6.736;2024-02-26T10:16:06;99718.00;;;6.00
37536;BMP180;23379;51.554;6.736;2024-02-26T10:18:46;99710.00;;;6.10
37536;BMP180;23379;51.554;6.736;2024-02-26T10:21:12;99716.00;;;6.20
37536;BMP180;23379;51.554;6.736;2024-02-26T10:23:37;99711.00;;;5.90
37536;BMP180;23379;51.554;6.736;2024-02-26T10:26:03;99724.00;;;5.90
37536;BMP180;23379;51.554;6.736;2024-02-26T10:28:29;99734.00;;;5.80
37536;BMP180;23379;51.554;6.736;2024-02-26T10:30:55;99717.00;;;6.00
37536;BMP180;23379;51.554;6.736;2024-02-26T10:33:20;99732.00;;;6.00
37536;BMP180;23379;51.554;6.736;2024-02-26T10:35:48;99718.00;;;5.80
37536;BMP180;23379;51.554;6.736;2024-02-26T10:38:14;99728.00;;;5.80
37536;BMP180;23379;51.554;6.736;2024-02-26T10:40:42;99747.00;;;5.80
37536;BMP180;23379;51.554;6.736;2024-02-26T10:43:08;99733.00;;;5.80
37536;BMP180;23379;51.554;6.736;2024-02-26T10:45:33;99745.00;;;6.00
37536;BMP180;23379;51.554;6.736;2024-02-26T10:48:00;99721.00;;;6.00
37536;BMP180;23379;51.554;6.736;2024-02-26T10:50:25;99739.00;;;5.90
37536;BMP180;23379;51.554;6.736;2024-02-26T10:52:51;99735.00;;;6.00
37536;BMP180;23379;51.554;6.736;2024-02-26T10:55:17;99752.00;;;6.00
37536;BMP180;23379;51.554;6.736;2024-02-26T10:57:44;99728.00;;;6.10
37536;BMP180;23379;51.554;6.736;2024-02-26T11:00:14;99735.00;;;6.20
37536;BMP180;23379;51.554;6.736;2024-02-26T11:02:41;99761.00;;;6.10
37536;BMP180;23379;51.554;6.736;2024-02-26T11:05:07;99771.00;;;6.10
37536;BMP180;23379;51.554;6.736;2024-02-26T11:07:36;99739.00;;;6.10
37536;BMP180;23379;51.554;6.736;2024-02-26T11:10:03;99762.00;;;6.10
37536;BMP180;23379;51.554;6.736;2024-02-26T11:12:30;99755.00;;;6.00
37536;BMP180;23379;51.554;6.736;2024-02-26T11:14:56;99765.00;;;5.90
37536;BMP180;23379;51.554;6.736;2024-02-26T11:17:26;99770.00;;;6.10
37536;BMP180;23379;51.554;6.736;2024-02-26T11:19:55;99779.00;;;6.10
37536;BMP180;23379;51.554;6.736;2024-02-26T11:22:20;99760.00;;;6.30
37536;BMP180;23379;51.554;6.736;2024-02-26T11:24:48;99780.00;;;6.40
37536;BMP180;23379;51.554;6.736;2024-02-26T11:27:15;99769.00;;;6.30
37536;BMP180;23379;51.554;6.736;2024-02-26T11:29:44;99778.00;;;6.60
37536;BMP180;23379;51.554;6.736;2024-02-26T11:32:12;99795.00;;;6.60
37536;BMP180;23379;51.554;6.736;2024-02-26T11:34:38;99768.00;;;6.50
37536;BMP180;23379;51.554;6.736;2024-02-26T11:37:15;99803.00;;;6.30
37536;BMP180;23379;51.554;6.736;2024-02-26T11:39:42;99800.00;;;6.50
37536;BMP180;23379;51.554;6.736;2024-02-26T11:42:08;99788.00;;;6.20
37536;BMP180;23379;51.554;6.736;2024-02-26T11:44:34;99785.00;;;6.30
37536;BMP180;23379;51.554;6.736;2024-02-26T11:47:11;99811.00;;;6.50
37536;BMP180;23379;51.554;6.736;2024-02-26T11:49:37;99796.00;;;6.60
37536;BMP180;23379;51.554;6.736;2024-02-26T11:52:06;99789.00;;;6.60
37536;BMP180;23379;51.554;6.736;2024-02-26T11:54:52;99777.00;;;6.20
37536;BMP180;23379;51.554;6.736;2024-02-26T12:00:14;99789.00;;;6.10
37536;BMP180;23379;51.554;6.736;2024-02-26T12:02:46;99803.00;;;6.10
37536;BMP180;23379;51.554;6.736;2024-02-26T12:05:20;99812.00;;;6.30
37536;BMP180;23379;51.554;6.736;2024-02-26T12:07:52;99799.00;;;6.30
37536;BMP180;23379;51.554;6.736;2024-02-26T12:10:25;99810.00;;;6.30
37536;BMP180;23379;51.554;6.736;2024-02-26T12:15:23;99806.00;;;6.20
37536;BMP180;23379;51.554;6.736;2024-02-26T12:17:49;99818.00;;;6.40
37536;BMP180;23379;51.554;6.736;2024-02-26T12:20:16;99827.00;;;6.50
37536;BMP180;23379;51.554;6.736;2024-02-26T12:22:45;99806.00;;;6.60
37536;BMP180;23379;51.554;6.736;2024-02-26T12:25:12;99824.00;;;6.80
37536;BMP180;23379;51.554;6.736;2024-02-26T12:27:38;99819.00;;;6.70
37536;BMP180;23379;51.554;6.736;2024-02-26T12:30:04;99817.00;;;6.60
37536;BMP180;23379;51.554;6.736;2024-02-26T12:32:30;99822.00;;;6.50
37536;BMP180;23379;51.554;6.736;2024-02-26T12:34:56;99822.00;;;6.60
37536;BMP180;23379;51.554;6.736;2024-02-26T12:37:22;99827.00;;;6.60
37536;BMP180;23379;51.554;6.736;2024-02-26T12:39:47;99833.00;;;6.70
37536;BMP180;23379;51.554;6.736;2024-02-26T12:42:14;99817.00;;;7.00
37536;BMP180;23379;51.554;6.736;2024-02-26T12:44:39;99853.00;;;7.20
37536;BMP180;23379;51.554;6.736;2024-02-26T12:47:05;99833.00;;;6.80
37536;BMP180;23379;51.554;6.736;2024-02-26T12:49:31;99841.00;;;7.00
37536;BMP180;23379;51.554;6.736;2024-02-26T12:51:56;99849.00;;;7.20
37536;BMP180;23379;51.554;6.736;2024-02-26T12:54:30;99833.00;;;6.90
37536;BMP180;23379;51.554;6.736;2024-02-26T12:56:57;99835.00;;;6.80
37536;BMP180;23379;51.554;6.736;2024-02-26T12:59:23;99850.00;;;6.80
37536;BMP180;23379;51.554;6.736;2024-02-26T13:01:49;99838.00;;;6.60
37536;BMP180;23379;51.554;6.736;2024-02-26T13:04:14;99850.00;;;7.00
37536;BMP180;23379;51.554;6.736;2024-02-26T13:06:40;99858.00;;;7.10
37536;BMP180;23379;51.554;6.736;2024-02-26T13:09:06;99863.00;;;6.90
37536;BMP180;23379;51.554;6.736;2024-02-26T13:11:31;99880.00;;;6.50
37536;BMP180;23379;51.554;6.736;2024-02-26T13:13:58;99870.00;;;6.70
37536;BMP180;23379;51.554;6.736;2024-02-26T13:16:24;99872.00;;;6.90
37536;BMP180;23379;51.554;6.736;2024-02-26T13:18:51;99902.00;;;6.60
37536;BMP180;23379;51.554;6.736;2024-02-26T13:21:18;99913.00;;;6.80
37536;BMP180;23379;51.554;6.736;2024-02-26T13:23:48;99881.00;;;6.80
37536;BMP180;23379;51.554;6.736;2024-02-26T13:26:14;99876.00;;;6.80
37536;BMP180;23379;51.554;6.736;2024-02-26T13:28:40;99872.00;;;6.80
37536;BMP180;23379;51.554;6.736;2024-02-26T13:31:05;99913.00;;;6.60
37536;BMP180;23379;51.554;6.736;2024-02-26T13:33:33;99887.00;;;6.60
37536;BMP180;23379;51.554;6.736;2024-02-26T13:35:59;99884.00;;;6.50
37536;BMP180;23379;51.554;6.736;2024-02-26T13:38:26;99877.00;;;6.40
37536;BMP180;23379;51.554;6.736;2024-02-26T13:40:52;99928.00;;;6.70
37536;BMP180;23379;51.554;6.736;2024-02-26T13:43:18;99895.00;;;6.70
37536;BMP180;23379;51.554;6.736;2024-02-26T13:45:44;99913.00;;;6.60
37536;BMP180;23379;51.554;6.736;2024-02-26T13:48:10;99892.00;;;6.60
37536;BMP180;23379;51.554;6.736;2024-02-26T13:50:40;99911.00;;;6.90
37536;BMP180;23379;51.554;6.736;2024-02-26T13:53:06;99919.00;;;6.90
37536;BMP180;23379;51.554;6.736;2024-02-26T13:55:31;99952.00;;;6.80
37536;BMP180;23379;51.554;6.736;2024-02-26T13:57:58;99903.00;;;6.50
37536;BMP180;23379;51.554;6.736;2024-02-26T14:00:24;99921.00;;;6.70
37536;BMP180;23379;51.554;6.736;2024-02-26T14:02:52;99939.00;;;6.90
37536;BMP180;23379;51.554;6.736;2024-02-26T14:05:17;99936.00;;;6.60
37536;BMP180;23379;51.554;6.736;2024-02-26T14:07:43;99929.00;;;6.80
37536;BMP180;23379;51.554;6.736;2024-02-26T14:10:09;99924.00;;;6.90
37536;BMP180;23379;51.554;6.736;2024-02-26T14:12:39;99936.00;;;6.80
37536;BMP180;23379;51.554;6.736;2024-02-26T14:15:09;99930.00;;;6.90
37536;BMP180;23379;51.554;6.736;2024-02-26T14:17:35;99922.00;;;6.80
37536;BMP180;23379;51.554;6.736;2024-02-26T14:20:01;99939.00;;;6.60